createdAt,value
2018-05-23T00:00:42.903Z,38.50
2018-05-23T00:03:11.163Z,38.50
2018-05-23T00:05:39.414Z,39.70
2018-05-23T00:08:08.478Z,39.00
2018-05-23T00:10:38.269Z,38.60
2018-05-23T00:13:06.568Z,38.60
2018-05-23T00:15:34.804Z,38.50
2018-05-23T00:18:03.064Z,38.40
2018-05-23T00:20:32.132Z,38.50
2018-05-23T00:23:00.366Z,38.40
2018-05-23T00:25:28.625Z,38.30
2018-05-23T00:27:56.908Z,38.50
2018-05-23T00:30:25.171Z,38.50
2018-05-23T00:32:53.417Z,38.50
2018-05-23T00:35:21.675Z,38.50
2018-05-23T00:37:49.923Z,38.50
2018-05-23T00:40:18.175Z,39.40
2018-05-23T00:42:46.499Z,40.20
2018-05-23T00:45:14.762Z,39.70
2018-05-23T00:47:43.000Z,40.00
2018-05-23T00:50:11.263Z,42.00
2018-05-23T00:52:39.516Z,40.30
2018-05-23T00:55:21.232Z,39.50
2018-05-23T00:57:50.302Z,39.20
2018-05-23T01:00:18.548Z,39.20
2018-05-23T01:02:46.813Z,39.20
2018-05-23T01:05:15.090Z,39.20
2018-05-23T01:07:43.352Z,39.40
2018-05-23T01:10:11.658Z,39.40
2018-05-23T01:12:39.958Z,39.30
2018-05-23T01:15:08.256Z,39.40
2018-05-23T01:17:38.036Z,42.30
2018-05-23T01:20:06.279Z,42.30
2018-05-23T01:22:34.527Z,40.40
2018-05-23T01:25:03.603Z,39.80
2018-05-23T01:27:31.837Z,39.80
2018-05-23T01:30:00.108Z,40.30
2018-05-23T01:32:28.350Z,40.00
2018-05-23T01:34:57.382Z,42.10
2018-05-23T01:37:25.625Z,41.30
2018-05-23T01:39:53.884Z,40.30
2018-05-23T01:42:23.643Z,45.90
2018-05-23T01:44:51.903Z,45.70
2018-05-23T01:47:20.979Z,40.40
2018-05-23T01:49:49.254Z,40.40
2018-05-23T01:52:19.056Z,42.50
2018-05-23T01:54:47.357Z,42.50
2018-05-23T01:57:15.658Z,49.80
2018-05-23T01:59:43.937Z,40.90
2018-05-23T02:02:12.236Z,43.80
2018-05-23T02:04:40.470Z,44.10
2018-05-23T02:07:09.534Z,41.60
2018-05-23T02:09:37.772Z,41.50
2018-05-23T02:12:06.039Z,41.90
2018-05-23T02:14:34.331Z,42.00
2018-05-23T02:17:02.655Z,43.10
2018-05-23T02:19:30.887Z,43.70
2018-05-23T02:21:59.162Z,42.40
2018-05-23T02:24:27.455Z,42.10
2018-05-23T02:26:55.735Z,41.00
2018-05-23T02:29:23.979Z,41.30
2018-05-23T02:31:52.278Z,40.80
2018-05-23T02:34:20.535Z,41.20
2018-05-23T02:36:48.787Z,41.80
2018-05-23T02:39:17.847Z,41.80
2018-05-23T02:41:46.131Z,41.80
2018-05-23T02:44:14.376Z,42.20
2018-05-23T02:46:42.654Z,45.70
2018-05-23T02:49:10.922Z,43.50
2018-05-23T02:51:39.213Z,42.30
2018-05-23T02:54:07.552Z,41.60
2018-05-23T02:56:36.602Z,41.10
2018-05-23T02:59:04.879Z,41.20
2018-05-23T03:01:33.149Z,41.30
2018-05-23T03:04:01.386Z,41.60
2018-05-23T03:06:30.403Z,41.30
2018-05-23T03:08:58.701Z,41.30
2018-05-23T03:11:26.998Z,41.90
2018-05-23T03:13:55.241Z,41.30
2018-05-23T03:16:23.573Z,41.10
2018-05-23T03:18:52.582Z,42.00
2018-05-23T03:21:21.643Z,42.60
2018-05-23T03:23:49.931Z,42.70
2018-05-23T03:26:18.181Z,43.40
2018-05-23T03:28:46.481Z,43.00
2018-05-23T03:31:14.715Z,42.70
2018-05-23T03:33:43.010Z,42.80
2018-05-23T03:36:11.253Z,42.70
2018-05-23T03:38:39.513Z,41.80
2018-05-23T03:41:09.022Z,42.40
2018-05-23T03:43:38.059Z,42.10
2018-05-23T03:46:06.309Z,42.00
2018-05-23T03:48:34.558Z,42.20
2018-05-23T03:51:03.567Z,42.60
2018-05-23T03:53:32.594Z,45.10
2018-05-23T03:56:00.840Z,45.00
2018-05-23T03:58:29.898Z,43.50
2018-05-23T04:01:10.083Z,43.50
2018-05-23T04:03:51.080Z,47.60
2018-05-23T04:06:31.187Z,47.50
2018-05-23T04:08:59.491Z,52.40
2018-05-23T04:11:28.557Z,44.60
2018-05-23T04:13:56.810Z,44.60
2018-05-23T04:16:25.083Z,47.00
2018-05-23T04:18:53.383Z,43.70
2018-05-23T04:21:21.622Z,43.20
2018-05-23T04:23:49.930Z,43.10
2018-05-23T04:26:18.175Z,43.10
2018-05-23T04:28:46.451Z,43.10
2018-05-23T04:31:14.731Z,43.20
2018-05-23T04:33:43.014Z,43.40
2018-05-23T04:36:11.303Z,43.70
2018-05-23T04:38:39.557Z,44.50
2018-05-23T04:41:07.813Z,43.70
2018-05-23T04:43:36.834Z,43.90
2018-05-23T04:46:05.079Z,43.80
2018-05-23T04:48:34.151Z,43.80
2018-05-23T04:51:02.404Z,43.80
2018-05-23T04:53:30.689Z,44.20
2018-05-23T04:55:58.987Z,43.60
2018-05-23T04:58:27.235Z,45.10
2018-05-23T05:00:55.529Z,44.20
2018-05-23T05:03:23.773Z,43.90
2018-05-23T05:05:52.070Z,43.90
2018-05-23T05:08:20.326Z,43.90
2018-05-23T05:10:48.575Z,43.70
2018-05-23T05:13:17.645Z,46.00
2018-05-23T05:15:47.388Z,43.90
2018-05-23T05:18:15.650Z,43.90
2018-05-23T05:20:44.693Z,45.60
2018-05-23T05:23:12.991Z,45.50
2018-05-23T05:25:41.223Z,44.80
2018-05-23T05:28:09.484Z,45.50
2018-05-23T05:30:38.562Z,44.50
2018-05-23T05:33:06.625Z,44.50
2018-05-23T05:35:34.679Z,44.70
2018-05-23T05:38:02.709Z,44.20
2018-05-23T05:40:31.540Z,43.90
2018-05-23T05:42:59.599Z,43.90
2018-05-23T05:45:27.654Z,43.80
2018-05-23T05:47:56.436Z,43.80
2018-05-23T05:50:25.360Z,45.90
2018-05-23T05:52:53.408Z,45.80
2018-05-23T05:55:22.238Z,44.60
2018-05-23T05:57:50.260Z,44.60
2018-05-23T06:00:18.336Z,48.40
2018-05-23T06:02:46.382Z,46.20
2018-05-23T06:05:14.399Z,48.30
2018-05-23T06:07:42.416Z,46.80
2018-05-23T06:10:10.447Z,45.70
2018-05-23T06:12:38.498Z,45.10
2018-05-23T06:15:07.330Z,46.60
2018-05-23T06:17:35.387Z,46.60
2018-05-23T06:20:03.675Z,46.80
2018-05-23T06:22:31.931Z,45.40
2018-05-23T06:25:00.219Z,47.00
2018-05-23T06:27:28.302Z,44.90
2018-05-23T06:29:56.360Z,46.70
2018-05-23T06:32:24.371Z,45.70
2018-05-23T06:34:52.446Z,46.10
2018-05-23T06:37:20.522Z,49.90
2018-05-23T06:39:49.575Z,46.30
2018-05-23T06:42:17.616Z,46.40
2018-05-23T06:44:45.864Z,45.40
2018-05-23T06:47:14.925Z,46.50
2018-05-23T06:49:43.226Z,45.80
2018-05-23T06:52:11.529Z,50.30
2018-05-23T06:54:39.545Z,46.80
2018-05-23T06:57:07.578Z,45.90
2018-05-23T06:59:35.605Z,45.70
2018-05-23T07:02:03.670Z,45.70
2018-05-23T07:04:31.731Z,45.70
2018-05-23T07:06:59.758Z,47.80
2018-05-23T07:09:27.817Z,46.80
2018-05-23T07:11:55.909Z,47.90
2018-05-23T07:14:23.931Z,46.20
2018-05-23T07:16:51.957Z,46.00
2018-05-23T07:19:20.030Z,47.00
2018-05-23T07:21:48.839Z,46.60
2018-05-23T07:24:17.113Z,46.60
2018-05-23T07:26:45.369Z,47.90
2018-05-23T07:29:14.386Z,47.20
2018-05-23T07:31:42.737Z,47.10
2018-05-23T07:34:10.959Z,47.80
2018-05-23T07:36:39.223Z,49.10
2018-05-23T07:39:07.541Z,50.50
2018-05-23T07:41:35.801Z,48.90
2018-05-23T07:44:04.074Z,49.20
2018-05-23T07:46:32.310Z,47.80
2018-05-23T07:49:00.616Z,49.60
2018-05-23T07:51:28.863Z,48.20
2018-05-23T07:53:57.110Z,49.30
2018-05-23T07:56:26.204Z,50.50
2018-05-23T07:58:54.484Z,50.50
2018-05-23T08:01:22.780Z,51.90
2018-05-23T08:03:52.200Z,51.70
2018-05-23T08:06:20.491Z,51.70
2018-05-23T08:08:48.779Z,52.10
2018-05-23T08:11:17.029Z,52.50
2018-05-23T08:13:45.264Z,52.90
2018-05-23T08:16:14.321Z,52.70
2018-05-23T08:18:42.609Z,52.90
2018-05-23T08:21:10.876Z,51.80
2018-05-23T08:23:39.424Z,50.80
2018-05-23T08:26:08.473Z,54.30
2018-05-23T08:28:36.719Z,54.40
2018-05-23T08:31:05.009Z,53.20
2018-05-23T08:33:33.262Z,54.20
2018-05-23T08:36:01.588Z,54.70
2018-05-23T08:38:29.855Z,54.90
2018-05-23T08:40:58.133Z,53.20
2018-05-23T08:43:26.385Z,53.10
2018-05-23T08:45:54.696Z,54.40
2018-05-23T08:48:22.998Z,54.70
2018-05-23T08:50:51.332Z,55.00
2018-05-23T08:53:19.584Z,53.70
2018-05-23T08:55:47.841Z,51.20
2018-05-23T08:58:16.919Z,55.20
2018-05-23T09:00:45.666Z,55.20
2018-05-23T09:03:13.906Z,50.90
2018-05-23T09:05:42.947Z,51.50
2018-05-23T09:08:11.247Z,51.50
2018-05-23T09:10:39.543Z,50.30
2018-05-23T09:13:07.784Z,51.40
2018-05-23T09:15:36.040Z,51.70
2018-05-23T09:18:04.358Z,51.20
2018-05-23T09:20:32.611Z,51.20
2018-05-23T09:23:00.889Z,52.50
2018-05-23T09:25:29.193Z,50.90
2018-05-23T09:27:57.469Z,54.90
2018-05-23T09:30:25.793Z,52.30
2018-05-23T09:32:54.053Z,51.10
2018-05-23T09:35:23.139Z,51.10
2018-05-23T09:37:52.208Z,51.00
2018-05-23T09:40:20.501Z,50.50
2018-05-23T09:42:48.771Z,50.40
2018-05-23T09:45:17.090Z,50.20
2018-05-23T09:47:45.341Z,50.00
2018-05-23T09:50:13.367Z,50.50
2018-05-23T09:52:41.642Z,51.90
2018-05-23T09:55:10.027Z,53.70
2018-05-23T09:57:38.283Z,54.20
2018-05-23T10:00:06.545Z,51.30
2018-05-23T10:02:35.556Z,50.50
2018-05-23T10:05:04.263Z,50.50
2018-05-23T10:07:33.295Z,50.80
2018-05-23T10:10:02.447Z,50.70
2018-05-23T10:12:30.703Z,50.80
2018-05-23T10:14:58.973Z,52.90
2018-05-23T10:17:27.281Z,52.40
2018-05-23T10:19:55.516Z,52.20
2018-05-23T10:22:24.548Z,50.90
2018-05-23T10:24:52.844Z,50.90
2018-05-23T10:27:21.127Z,50.80
2018-05-23T10:29:49.519Z,50.50
2018-05-23T10:32:17.803Z,50.80
2018-05-23T10:34:46.091Z,50.50
2018-05-23T10:37:15.173Z,50.90
2018-05-23T10:39:43.419Z,50.30
2018-05-23T10:42:11.680Z,50.40
2018-05-23T10:44:39.922Z,52.10
2018-05-23T10:47:08.962Z,50.60
2018-05-23T10:49:37.251Z,50.60
2018-05-23T10:52:05.529Z,52.50
2018-05-23T10:54:33.819Z,51.10
2018-05-23T10:57:02.072Z,50.50
2018-05-23T10:59:30.361Z,50.20
2018-05-23T11:01:58.622Z,50.90
2018-05-23T11:04:26.909Z,51.00
2018-05-23T11:06:55.200Z,50.60
2018-05-23T11:09:23.480Z,50.10
2018-05-23T11:11:51.757Z,50.00
2018-05-23T11:14:20.059Z,49.80
2018-05-23T11:16:48.326Z,49.70
2018-05-23T11:19:16.626Z,49.70
2018-05-23T11:21:45.753Z,50.00
2018-05-23T11:24:14.044Z,50.10
2018-05-23T11:26:42.611Z,49.80
2018-05-23T11:29:10.909Z,49.90
2018-05-23T11:31:39.165Z,50.10
2018-05-23T11:34:07.486Z,50.60
2018-05-23T11:36:36.492Z,50.80
2018-05-23T11:39:05.616Z,50.70
2018-05-23T11:41:34.634Z,50.20
2018-05-23T11:44:03.736Z,50.20
2018-05-23T11:46:32.061Z,50.90
2018-05-23T11:49:00.311Z,50.10
2018-05-23T11:51:28.588Z,50.10
2018-05-23T11:53:57.615Z,49.40
2018-05-23T11:56:26.661Z,50.00
2018-05-23T11:58:54.956Z,49.40
2018-05-23T12:01:23.252Z,49.70
2018-05-23T12:03:51.551Z,49.30
2018-05-23T12:06:20.598Z,49.40
2018-05-23T12:08:48.936Z,49.40
2018-05-23T12:11:17.157Z,49.30
2018-05-23T12:13:46.719Z,49.10
2018-05-23T12:16:16.502Z,48.70
2018-05-23T12:18:44.793Z,48.70
2018-05-23T12:21:13.838Z,48.90
2018-05-23T12:23:42.131Z,48.90
2018-05-23T12:26:11.162Z,49.30
2018-05-23T12:28:39.421Z,49.30
2018-05-23T12:31:08.136Z,49.10
2018-05-23T12:33:37.158Z,48.90
2018-05-23T12:36:05.447Z,48.90
2018-05-23T12:38:33.710Z,49.00
2018-05-23T12:41:02.025Z,49.10
2018-05-23T12:43:30.251Z,48.50
2018-05-23T12:45:58.508Z,48.80
2018-05-23T12:48:27.539Z,47.10
2018-05-23T12:50:55.833Z,47.10
2018-05-23T12:53:24.231Z,48.50
2018-05-23T12:55:52.474Z,48.30
2018-05-23T12:58:20.748Z,48.20
2018-05-23T13:00:49.027Z,48.50
2018-05-23T13:03:17.351Z,48.40
2018-05-23T13:05:46.046Z,48.60
2018-05-23T13:08:14.326Z,48.50
2018-05-23T13:10:42.634Z,48.30
2018-05-23T13:13:10.919Z,48.40
2018-05-23T13:15:39.191Z,49.50
2018-05-23T13:18:08.195Z,48.60
2018-05-23T13:20:36.470Z,48.60
2018-05-23T13:23:04.748Z,48.40
2018-05-23T13:25:33.009Z,48.30
2018-05-23T13:28:01.259Z,48.30
2018-05-23T13:30:30.279Z,48.90
2018-05-23T13:32:58.532Z,48.90
2018-05-23T13:35:26.842Z,47.90
2018-05-23T13:37:55.075Z,48.70
2018-05-23T13:40:23.360Z,48.20
2018-05-23T13:42:52.386Z,48.40
2018-05-23T13:45:20.671Z,47.90
2018-05-23T13:47:48.928Z,47.90
2018-05-23T13:50:17.966Z,48.20
2018-05-23T13:52:46.277Z,48.20
2018-05-23T13:55:14.675Z,47.70
2018-05-23T13:57:42.903Z,47.70
2018-05-23T14:00:11.178Z,47.90
2018-05-23T14:02:39.488Z,47.80
2018-05-23T14:05:07.786Z,47.90
2018-05-23T14:07:36.048Z,47.90
2018-05-23T14:10:04.337Z,47.70
2018-05-23T14:12:33.370Z,47.70
2018-05-23T14:15:01.678Z,47.70
2018-05-23T14:17:29.926Z,47.90
2018-05-23T14:19:58.193Z,47.90
2018-05-23T14:22:26.461Z,47.70
2018-05-23T14:24:54.745Z,47.70
2018-05-23T14:27:23.049Z,47.50
2018-05-23T14:29:51.364Z,47.60
2018-05-23T14:32:19.625Z,47.40
2018-05-23T14:34:48.675Z,47.30
2018-05-23T14:37:16.980Z,47.30
2018-05-23T14:39:45.275Z,47.30
2018-05-23T14:42:13.537Z,47.20
2018-05-23T14:44:41.804Z,47.30
2018-05-23T14:47:10.063Z,47.30
2018-05-23T14:49:38.307Z,47.20
2018-05-23T14:52:07.326Z,47.30
2018-05-23T14:54:35.643Z,47.30
2018-05-23T14:57:03.941Z,47.80
2018-05-23T14:59:32.249Z,48.40
2018-05-23T15:02:01.248Z,48.40
2018-05-23T15:04:29.521Z,48.40
2018-05-23T15:06:58.573Z,47.60
2018-05-23T15:09:26.836Z,47.50
2018-05-23T15:11:55.099Z,47.30
2018-05-23T15:14:23.418Z,47.50
2018-05-23T15:16:51.672Z,47.40
2018-05-23T15:19:19.924Z,47.10
2018-05-23T15:21:48.228Z,47.90
2018-05-23T15:24:16.532Z,47.80
2018-05-23T15:26:44.831Z,47.80
2018-05-23T15:29:13.840Z,53.20
2018-05-23T15:31:42.161Z,53.30
2018-05-23T15:34:10.412Z,51.50
2018-05-23T15:36:38.675Z,52.90
2018-05-23T15:39:06.987Z,54.10
2018-05-23T15:41:35.339Z,55.20
2018-05-23T15:44:03.603Z,55.00
2018-05-23T15:46:31.844Z,58.70
2018-05-23T15:49:00.139Z,55.10
2018-05-23T15:51:29.203Z,54.70
2018-05-23T15:53:57.496Z,54.90
2018-05-23T15:56:25.754Z,56.40
2018-05-23T15:58:54.034Z,62.00
2018-05-23T16:01:22.307Z,58.00
2018-05-23T16:03:50.557Z,58.00
2018-05-23T16:06:18.867Z,58.40
2018-05-23T16:08:47.106Z,58.40
2018-05-23T16:11:15.356Z,57.90
2018-05-23T16:13:44.421Z,60.70
2018-05-23T16:16:12.717Z,60.40
2018-05-23T16:18:40.959Z,57.30
2018-05-23T16:21:09.267Z,58.10
2018-05-23T16:23:38.307Z,60.00
2018-05-23T16:26:06.574Z,59.60
2018-05-23T16:28:34.896Z,56.40
2018-05-23T16:31:03.185Z,57.50
2018-05-23T16:33:31.446Z,58.00
2018-05-23T16:35:59.746Z,55.00
2018-05-23T16:38:28.084Z,56.10
2018-05-23T16:40:56.319Z,59.70
2018-05-23T16:43:25.340Z,60.20
2018-05-23T16:45:53.592Z,60.00
2018-05-23T16:48:22.637Z,58.70
2018-05-23T16:50:50.933Z,58.60
2018-05-23T16:53:19.207Z,61.80
2018-05-23T16:55:47.520Z,55.60
2018-05-23T16:58:16.621Z,59.30
2018-05-23T17:00:45.635Z,59.30
2018-05-23T17:03:13.931Z,59.10
2018-05-23T17:05:42.177Z,58.50
2018-05-23T17:08:10.431Z,61.90
2018-05-23T17:10:39.466Z,57.30
2018-05-23T17:13:07.736Z,57.30
2018-05-23T17:15:35.999Z,66.90
2018-05-23T17:18:04.287Z,62.70
2018-05-23T17:20:32.612Z,71.40
2018-05-23T17:23:00.907Z,62.80
2018-05-23T17:25:29.245Z,59.70
2018-05-23T17:27:57.533Z,66.40
2018-05-23T17:30:25.880Z,71.40
2018-05-23T17:32:54.191Z,65.90
2018-05-23T17:35:22.569Z,59.20
2018-05-23T17:37:50.882Z,61.40
2018-05-23T17:40:19.339Z,64.00
2018-05-23T17:42:48.301Z,64.30
2018-05-23T17:45:16.637Z,64.00
2018-05-23T17:47:44.938Z,59.00
2018-05-23T17:50:13.168Z,60.20
2018-05-23T17:52:41.457Z,62.10
2018-05-23T17:55:09.713Z,59.20
2018-05-23T17:57:38.039Z,68.40
2018-05-23T18:00:06.343Z,68.20
2018-05-23T18:02:34.614Z,63.10
2018-05-23T18:05:02.876Z,60.30
2018-05-23T18:07:31.198Z,60.90
2018-05-23T18:09:59.439Z,61.60
2018-05-23T18:12:27.702Z,64.90
2018-05-23T18:14:56.014Z,63.10
2018-05-23T18:17:24.296Z,61.00
2018-05-23T18:19:52.564Z,60.20
2018-05-23T18:22:20.846Z,59.00
2018-05-23T18:24:49.228Z,61.90
2018-05-23T18:27:17.512Z,65.70
2018-05-23T18:29:46.814Z,62.20
2018-05-23T18:32:15.091Z,64.90
2018-05-23T18:34:43.466Z,57.90
2018-05-23T18:37:11.845Z,61.00
2018-05-23T18:39:40.216Z,59.50
2018-05-23T18:42:08.484Z,60.70
2018-05-23T18:44:37.836Z,58.40
2018-05-23T18:47:06.886Z,57.60
2018-05-23T18:49:35.187Z,57.60
2018-05-23T18:52:03.464Z,56.60
2018-05-23T18:54:31.785Z,61.70
2018-05-23T18:57:00.833Z,57.00
2018-05-23T18:59:29.120Z,56.90
2018-05-23T19:01:57.427Z,61.10
2018-05-23T19:04:26.470Z,55.30
2018-05-23T19:06:54.712Z,55.70
2018-05-23T19:09:23.741Z,54.80
2018-05-23T19:11:52.047Z,54.80
2018-05-23T19:14:20.326Z,54.50
2018-05-23T19:16:48.628Z,54.30
2018-05-23T19:19:16.880Z,54.10
2018-05-23T19:21:45.190Z,54.20
2018-05-23T19:24:14.258Z,53.70
2018-05-23T19:26:42.545Z,53.70
2018-05-23T19:29:10.774Z,57.50
2018-05-23T19:31:39.122Z,55.20
2018-05-23T19:34:08.158Z,55.90
2018-05-23T19:36:36.461Z,56.00
2018-05-23T19:39:04.744Z,58.50
2018-05-23T19:41:33.031Z,56.30
2018-05-23T19:44:02.114Z,54.80
2018-05-23T19:46:30.411Z,54.90
2018-05-23T19:48:59.429Z,55.00
2018-05-23T19:51:27.680Z,55.20
2018-05-23T19:53:56.743Z,54.10
2018-05-23T19:56:24.992Z,54.10
2018-05-23T19:58:53.304Z,54.20
2018-05-23T20:01:21.563Z,54.10
2018-05-23T20:03:49.883Z,54.10
2018-05-23T20:06:19.097Z,54.00
2018-05-23T20:08:48.175Z,53.70
2018-05-23T20:11:16.534Z,53.70
2018-05-23T20:13:45.590Z,53.80
2018-05-23T20:16:13.872Z,53.80
2018-05-23T20:18:42.159Z,54.40
2018-05-23T20:21:10.436Z,53.90
2018-05-23T20:23:38.684Z,53.90
2018-05-23T20:26:06.999Z,53.70
2018-05-23T20:28:35.251Z,53.90
2018-05-23T20:31:03.531Z,53.50
2018-05-23T20:33:31.807Z,53.60
2018-05-23T20:36:00.085Z,53.90
2018-05-23T20:38:28.363Z,55.50
2018-05-23T20:40:56.657Z,54.40
2018-05-23T20:43:24.958Z,53.90
2018-05-23T20:45:53.227Z,53.60
2018-05-23T20:48:21.530Z,53.80
2018-05-23T20:50:49.827Z,53.70
2018-05-23T20:53:18.906Z,54.00
2018-05-23T20:55:47.212Z,54.00
2018-05-23T20:58:16.222Z,53.60
2018-05-23T21:00:44.498Z,53.70
2018-05-23T21:03:12.800Z,54.30
2018-05-23T21:05:41.143Z,54.30
2018-05-23T21:08:09.437Z,54.00
2018-05-23T21:10:37.771Z,54.00
2018-05-23T21:13:06.046Z,54.50
2018-05-23T21:15:34.327Z,54.50
2018-05-23T21:18:02.598Z,54.90
2018-05-23T21:20:30.882Z,55.60
2018-05-23T21:22:59.204Z,55.10
2018-05-23T21:25:27.535Z,54.40
2018-05-23T21:27:57.343Z,54.30
2018-05-23T21:30:25.623Z,54.30
2018-05-23T21:32:54.706Z,54.00
2018-05-23T21:35:23.057Z,54.00
2018-05-23T21:37:51.437Z,53.90
2018-05-23T21:40:19.734Z,53.70
2018-05-23T21:42:48.056Z,53.60
2018-05-23T21:45:17.080Z,54.20
2018-05-23T21:47:45.349Z,54.10
2018-05-23T21:50:13.616Z,54.20
2018-05-23T21:52:42.713Z,54.00
2018-05-23T21:55:10.898Z,54.00
2018-05-23T21:57:39.179Z,54.20
2018-05-23T22:00:07.475Z,55.00
2018-05-23T22:02:35.732Z,54.70
2018-05-23T22:05:04.024Z,54.20
2018-05-23T22:07:32.258Z,54.20
2018-05-23T22:10:01.344Z,54.00
2018-05-23T22:12:30.194Z,53.90
2018-05-23T22:14:58.511Z,54.30
2018-05-23T22:17:26.737Z,54.30
2018-05-23T22:19:54.998Z,54.30
2018-05-23T22:22:23.267Z,54.10
2018-05-23T22:24:51.531Z,54.40
2018-05-23T22:27:20.588Z,54.90
2018-05-23T22:29:48.886Z,55.00
2018-05-23T22:32:18.634Z,55.00
2018-05-23T22:34:46.952Z,55.10
2018-05-23T22:37:15.201Z,54.80
2018-05-23T22:39:43.450Z,55.10
2018-05-23T22:42:12.513Z,61.90
2018-05-23T22:44:40.779Z,61.50
2018-05-23T22:47:09.059Z,55.90
2018-05-23T22:49:37.363Z,56.50
2018-05-23T22:52:06.413Z,62.60
2018-05-23T22:54:34.717Z,62.00
2018-05-23T22:57:02.987Z,58.30
2018-05-23T22:59:31.295Z,57.30
2018-05-23T23:01:59.605Z,57.30
2018-05-23T23:04:27.867Z,56.90
2018-05-23T23:06:56.145Z,56.60
2018-05-23T23:09:25.166Z,56.80
2018-05-23T23:11:53.475Z,56.80
2018-05-23T23:14:21.755Z,55.70
2018-05-23T23:16:49.992Z,55.50
2018-05-23T23:19:18.250Z,55.10
2018-05-23T23:21:46.512Z,55.50
2018-05-23T23:24:15.536Z,55.20
2018-05-23T23:26:43.792Z,55.20
2018-05-23T23:29:12.080Z,58.00
2018-05-23T23:31:40.331Z,55.90
2018-05-23T23:34:09.370Z,57.10
2018-05-23T23:36:37.637Z,57.10
2018-05-23T23:39:05.885Z,55.40
2018-05-23T23:41:34.901Z,55.30
2018-05-23T23:44:03.204Z,55.40
2018-05-23T23:46:31.485Z,54.90
2018-05-23T23:48:59.731Z,55.50
2018-05-23T23:51:27.984Z,55.20
2018-05-23T23:53:57.004Z,55.60
2018-05-23T23:56:25.247Z,55.50
2018-05-23T23:58:54.326Z,58.20
